sensor_id;sensor_type;location;lat;lon;timestamp;pressure;altitude;pressure_sealevel;temperature;humidity
7376;BME280;3728;42.266;24.944;2023-05-08T00:00:39;99842.06;;;14.36;73.88
7376;BME280;3728;42.266;24.944;2023-05-08T00:03:07;99834.72;;;14.42;72.82
7376;BME280;3728;42.266;24.944;2023-05-08T00:05:35;99836.13;;;14.39;72.92
7376;BME280;3728;42.266;24.944;2023-05-08T00:08:03;99823.03;;;14.22;72.76
7376;BME280;3728;42.266;24.944;2023-05-08T00:10:31;99817.19;;;14.46;71.60
7376;BME280;3728;42.266;24.944;2023-05-08T00:12:59;99823.59;;;14.28;71.22
7376;BME280;3728;42.266;24.944;2023-05-08T00:15:27;99820.72;;;14.04;71.97
7376;BME280;3728;42.266;24.944;2023-05-08T00:17:55;99815.28;;;14.17;72.13
7376;BME280;3728;42.266;24.944;2023-05-08T00:20:22;99813.28;;;14.14;71.92
7376;BME280;3728;42.266;24.944;2023-05-08T00:22:50;99813.13;;;14.11;71.45
7376;BME280;3728;42.266;24.944;2023-05-08T00:25:18;99805.59;;;14.01;72.77
7376;BME280;3728;42.266;24.944;2023-05-08T00:27:46;99816.69;;;14.06;72.60
7376;BME280;3728;42.266;24.944;2023-05-08T00:30:13;99810.38;;;14.07;73.00
7376;BME280;3728;42.266;24.944;2023-05-08T00:32:41;99817.59;;;14.19;72.65
7376;BME280;3728;42.266;24.944;2023-05-08T00:35:09;99820.19;;;14.27;71.47
7376;BME280;3728;42.266;24.944;2023-05-08T00:37:37;99816.97;;;14.30;72.05
7376;BME280;3728;42.266;24.944;2023-05-08T00:40:08;99812.81;;;14.12;72.28
7376;BME280;3728;42.266;24.944;2023-05-08T00:42:37;99820.84;;;14.24;71.90
7376;BME280;3728;42.266;24.944;2023-05-08T00:45:05;99826.25;;;14.36;70.39
7376;BME280;3728;42.266;24.944;2023-05-08T00:47:34;99827.50;;;14.30;71.11
7376;BME280;3728;42.266;24.944;2023-05-08T00:50:02;99833.44;;;14.10;72.04
7376;BME280;3728;42.266;24.944;2023-05-08T00:52:32;99830.16;;;14.13;72.51
7376;BME280;3728;42.266;24.944;2023-05-08T00:55:01;99832.22;;;14.08;72.78
7376;BME280;3728;42.266;24.944;2023-05-08T00:57:33;99829.53;;;14.16;73.48
7376;BME280;3728;42.266;24.944;2023-05-08T01:00:03;99827.19;;;14.23;72.58
7376;BME280;3728;42.266;24.944;2023-05-08T01:02:31;99832.00;;;14.21;71.68
7376;BME280;3728;42.266;24.944;2023-05-08T01:04:59;99838.38;;;14.12;72.42
7376;BME280;3728;42.266;24.944;2023-05-08T01:07:27;99841.34;;;14.02;73.05
7376;BME280;3728;42.266;24.944;2023-05-08T01:09:55;99843.06;;;13.98;72.99
7376;BME280;3728;42.266;24.944;2023-05-08T01:15:28;99846.34;;;13.86;73.85
7376;BME280;3728;42.266;24.944;2023-05-08T01:18:35;99847.94;;;13.70;74.02
7376;BME280;3728;42.266;24.944;2023-05-08T01:21:37;99841.13;;;13.78;74.96
7376;BME280;3728;42.266;24.944;2023-05-08T01:24:11;99853.66;;;13.72;74.44
7376;BME280;3728;42.266;24.944;2023-05-08T01:32:56;99841.75;;;13.49;76.79
7376;BME280;3728;42.266;24.944;2023-05-08T01:35:36;99842.34;;;13.71;76.77
7376;BME280;3728;42.266;24.944;2023-05-08T01:38:29;99846.19;;;13.83;75.35
7376;BME280;3728;42.266;24.944;2023-05-08T01:41:07;99844.97;;;13.54;77.02
7376;BME280;3728;42.266;24.944;2023-05-08T01:44:10;99843.13;;;13.55;78.41
7376;BME280;3728;42.266;24.944;2023-05-08T01:46:44;99854.75;;;13.54;78.77
7376;BME280;3728;42.266;24.944;2023-05-08T01:49:22;99851.81;;;13.55;78.71
7376;BME280;3728;42.266;24.944;2023-05-08T01:52:10;99850.56;;;13.61;78.70
7376;BME280;3728;42.266;24.944;2023-05-08T01:55:04;99853.03;;;13.58;78.30
7376;BME280;3728;42.266;24.944;2023-05-08T01:57:39;99850.59;;;13.44;78.72
7376;BME280;3728;42.266;24.944;2023-05-08T02:00:14;99853.81;;;13.58;78.60
7376;BME280;3728;42.266;24.944;2023-05-08T02:02:45;99856.75;;;13.74;77.71
7376;BME280;3728;42.266;24.944;2023-05-08T02:05:15;99855.50;;;13.80;77.13
7376;BME280;3728;42.266;24.944;2023-05-08T02:07:46;99852.13;;;13.45;78.09
7376;BME280;3728;42.266;24.944;2023-05-08T02:10:20;99854.28;;;13.18;79.25
7376;BME280;3728;42.266;24.944;2023-05-08T02:12:51;99848.56;;;13.33;79.06
7376;BME280;3728;42.266;24.944;2023-05-08T02:15:20;99843.91;;;13.30;78.47
7376;BME280;3728;42.266;24.944;2023-05-08T02:17:49;99851.19;;;13.33;79.44
7376;BME280;3728;42.266;24.944;2023-05-08T02:20:20;99845.94;;;13.41;78.56
7376;BME280;3728;42.266;24.944;2023-05-08T02:22:49;99839.25;;;13.52;78.71
7376;BME280;3728;42.266;24.944;2023-05-08T02:25:18;99843.13;;;13.55;78.95
7376;BME280;3728;42.266;24.944;2023-05-08T02:27:47;99851.03;;;13.46;78.49
7376;BME280;3728;42.266;24.944;2023-05-08T02:30:16;99850.13;;;13.42;77.89
7376;BME280;3728;42.266;24.944;2023-05-08T02:32:45;99850.88;;;13.43;78.20
7376;BME280;3728;42.266;24.944;2023-05-08T02:35:17;99856.38;;;12.98;79.38
7376;BME280;3728;42.266;24.944;2023-05-08T02:37:52;99857.81;;;13.04;79.99
7376;BME280;3728;42.266;24.944;2023-05-08T02:40:22;99849.41;;;13.02;80.09
7376;BME280;3728;42.266;24.944;2023-05-08T02:42:53;99849.34;;;13.16;80.79
7376;BME280;3728;42.266;24.944;2023-05-08T02:45:25;99845.00;;;13.20;80.03
7376;BME280;3728;42.266;24.944;2023-05-08T02:48:04;99847.47;;;13.25;79.09
7376;BME280;3728;42.266;24.944;2023-05-08T02:51:03;99851.94;;;13.08;78.75
7376;BME280;3728;42.266;24.944;2023-05-08T02:53:49;99853.97;;;13.11;77.42
7376;BME280;3728;42.266;24.944;2023-05-08T02:56:39;99857.44;;;12.80;78.79
7376;BME280;3728;42.266;24.944;2023-05-08T02:59:19;99859.59;;;12.78;79.45
7376;BME280;3728;42.266;24.944;2023-05-08T03:01:55;99854.66;;;12.94;77.96
7376;BME280;3728;42.266;24.944;2023-05-08T03:04:31;99860.41;;;12.96;77.26
7376;BME280;3728;42.266;24.944;2023-05-08T03:07:03;99855.09;;;12.79;77.50
7376;BME280;3728;42.266;24.944;2023-05-08T03:09:38;99852.06;;;12.46;78.36
7376;BME280;3728;42.266;24.944;2023-05-08T03:12:13;99855.50;;;12.55;78.50
7376;BME280;3728;42.266;24.944;2023-05-08T03:14:56;99851.91;;;12.51;78.17
7376;BME280;3728;42.266;24.944;2023-05-08T03:17:32;99855.34;;;12.60;78.75
7376;BME280;3728;42.266;24.944;2023-05-08T03:20:06;99860.19;;;12.75;78.52
7376;BME280;3728;42.266;24.944;2023-05-08T03:22:37;99860.19;;;12.75;78.25
7376;BME280;3728;42.266;24.944;2023-05-08T03:25:08;99857.91;;;12.91;77.29
7376;BME280;3728;42.266;24.944;2023-05-08T03:27:38;99860.25;;;12.92;77.57
7376;BME280;3728;42.266;24.944;2023-05-08T03:30:07;99860.09;;;12.97;76.59
7376;BME280;3728;42.266;24.944;2023-05-08T03:32:39;99870.63;;;12.97;76.04
7376;BME280;3728;42.266;24.944;2023-05-08T03:35:08;99863.47;;;12.89;75.80
7376;BME280;3728;42.266;24.944;2023-05-08T03:37:36;99872.28;;;12.85;75.23
7376;BME280;3728;42.266;24.944;2023-05-08T03:40:05;99876.81;;;12.93;76.27
7376;BME280;3728;42.266;24.944;2023-05-08T03:42:35;99879.72;;;12.91;77.56
7376;BME280;3728;42.266;24.944;2023-05-08T03:45:05;99879.56;;;12.88;78.49
7376;BME280;3728;42.266;24.944;2023-05-08T03:47:34;99884.09;;;13.04;78.24
7376;BME280;3728;42.266;24.944;2023-05-08T03:50:03;99875.91;;;13.15;77.86
7376;BME280;3728;42.266;24.944;2023-05-08T03:52:31;99878.22;;;13.08;78.91
7376;BME280;3728;42.266;24.944;2023-05-08T03:54:59;99883.50;;;13.08;79.37
7376;BME280;3728;42.266;24.944;2023-05-08T03:57:35;99881.81;;;13.12;80.20
7376;BME280;3728;42.266;24.944;2023-05-08T04:03:40;99894.66;;;13.22;78.57
7376;BME280;3728;42.266;24.944;2023-05-08T04:06:54;99893.97;;;12.99;78.48
7376;BME280;3728;42.266;24.944;2023-05-08T04:15:43;99891.72;;;13.23;78.21
7376;BME280;3728;42.266;24.944;2023-05-08T04:18:27;99898.97;;;13.18;75.37
7376;BME280;3728;42.266;24.944;2023-05-08T04:20:58;99894.50;;;13.18;76.29
7376;BME280;3728;42.266;24.944;2023-05-08T04:23:29;99906.13;;;13.26;75.48
7376;BME280;3728;42.266;24.944;2023-05-08T04:25:58;99902.53;;;13.22;74.31
7376;BME280;3728;42.266;24.944;2023-05-08T04:28:30;99904.09;;;13.23;75.06
7376;BME280;3728;42.266;24.944;2023-05-08T04:30:58;99899.63;;;13.32;74.11
7376;BME280;3728;42.266;24.944;2023-05-08T04:33:28;99894.81;;;13.34;74.21
7376;BME280;3728;42.266;24.944;2023-05-08T04:36:00;99908.31;;;13.49;73.05
7376;BME280;3728;42.266;24.944;2023-05-08T04:38:29;99916.53;;;13.65;72.76
7376;BME280;3728;42.266;24.944;2023-05-08T04:40:57;99904.72;;;13.71;72.94
7376;BME280;3728;42.266;24.944;2023-05-08T04:43:28;99910.00;;;13.62;72.64
7376;BME280;3728;42.266;24.944;2023-05-08T04:45:57;99906.13;;;13.60;73.91
7376;BME280;3728;42.266;24.944;2023-05-08T04:48:25;99900.41;;;13.75;72.88
7376;BME280;3728;42.266;24.944;2023-05-08T04:50:53;99902.72;;;13.85;73.47
7376;BME280;3728;42.266;24.944;2023-05-08T04:53:21;99913.81;;;14.16;68.62
7376;BME280;3728;42.266;24.944;2023-05-08T04:55:49;99910.09;;;14.34;67.09
7376;BME280;3728;42.266;24.944;2023-05-08T04:58:18;99903.91;;;14.13;66.20
7376;BME280;3728;42.266;24.944;2023-05-08T05:00:46;99913.38;;;14.14;66.53
7376;BME280;3728;42.266;24.944;2023-05-08T05:03:13;99909.31;;;14.25;64.54
7376;BME280;3728;42.266;24.944;2023-05-08T05:05:42;99901.34;;;14.60;63.77
7376;BME280;3728;42.266;24.944;2023-05-08T05:08:09;99899.59;;;14.64;65.19
7376;BME280;3728;42.266;24.944;2023-05-08T05:10:38;99902.75;;;14.57;67.29
7376;BME280;3728;42.266;24.944;2023-05-08T05:13:06;99906.41;;;15.02;66.05
7376;BME280;3728;42.266;24.944;2023-05-08T05:15:34;99902.81;;;14.78;66.78
7376;BME280;3728;42.266;24.944;2023-05-08T05:18:01;99908.97;;;14.82;67.90
7376;BME280;3728;42.266;24.944;2023-05-08T05:20:29;99901.59;;;15.25;62.32
7376;BME280;3728;42.266;24.944;2023-05-08T05:22:57;99899.81;;;15.38;59.51
7376;BME280;3728;42.266;24.944;2023-05-08T05:25:25;99901.69;;;15.08;60.71
7376;BME280;3728;42.266;24.944;2023-05-08T05:27:53;99908.28;;;14.93;62.63
7376;BME280;3728;42.266;24.944;2023-05-08T05:30:21;99902.44;;;14.88;63.78
7376;BME280;3728;42.266;24.944;2023-05-08T05:32:49;99908.03;;;15.36;62.58
7376;BME280;3728;42.266;24.944;2023-05-08T05:35:17;99906.25;;;15.28;62.15
7376;BME280;3728;42.266;24.944;2023-05-08T05:37:45;99900.34;;;15.52;60.94
7376;BME280;3728;42.266;24.944;2023-05-08T05:40:13;99898.59;;;15.35;61.58
7376;BME280;3728;42.266;24.944;2023-05-08T05:42:47;99892.44;;;15.23;62.06
7376;BME280;3728;42.266;24.944;2023-05-08T05:45:17;99894.31;;;15.51;60.67
7376;BME280;3728;42.266;24.944;2023-05-08T05:47:45;99882.69;;;15.64;59.78
7376;BME280;3728;42.266;24.944;2023-05-08T05:50:21;99883.97;;;15.79;59.83
7376;BME280;3728;42.266;24.944;2023-05-08T05:52:51;99878.75;;;16.03;59.59
7376;BME280;3728;42.266;24.944;2023-05-08T05:55:19;99880.75;;;16.18;58.83
7376;BME280;3728;42.266;24.944;2023-05-08T05:57:49;99877.94;;;16.35;58.52
7376;BME280;3728;42.266;24.944;2023-05-08T06:00:17;99885.88;;;16.48;57.64
7376;BME280;3728;42.266;24.944;2023-05-08T06:02:51;99875.56;;;16.55;58.86
7376;BME280;3728;42.266;24.944;2023-05-08T06:05:19;99868.28;;;16.76;57.17
7376;BME280;3728;42.266;24.944;2023-05-08T06:07:49;99871.44;;;17.05;55.09
7376;BME280;3728;42.266;24.944;2023-05-08T06:10:18;99869.50;;;16.90;53.97
7376;BME280;3728;42.266;24.944;2023-05-08T06:12:46;99870.16;;;16.87;55.41
7376;BME280;3728;42.266;24.944;2023-05-08T06:15:14;99872.88;;;17.03;55.00
7376;BME280;3728;42.266;24.944;2023-05-08T06:17:44;99862.91;;;17.24;53.17
7376;BME280;3728;42.266;24.944;2023-05-08T06:20:14;99863.72;;;17.52;51.70
7376;BME280;3728;42.266;24.944;2023-05-08T06:22:42;99866.25;;;17.61;51.74
7376;BME280;3728;42.266;24.944;2023-05-08T06:25:10;99873.25;;;17.69;52.35
7376;BME280;3728;42.266;24.944;2023-05-08T06:27:38;99869.16;;;17.99;50.34
7376;BME280;3728;42.266;24.944;2023-05-08T06:30:06;99870.91;;;17.80;50.50
7376;BME280;3728;42.266;24.944;2023-05-08T06:32:36;99870.13;;;17.79;50.79
7376;BME280;3728;42.266;24.944;2023-05-08T06:35:05;99868.53;;;17.90;49.29
7376;BME280;3728;42.266;24.944;2023-05-08T06:37:33;99870.63;;;18.12;49.57
7376;BME280;3728;42.266;24.944;2023-05-08T06:40:00;99868.06;;;18.16;48.57
7376;BME280;3728;42.266;24.944;2023-05-08T06:42:39;99866.00;;;18.09;49.19
7376;BME280;3728;42.266;24.944;2023-05-08T06:45:08;99865.13;;;18.21;49.39
7376;BME280;3728;42.266;24.944;2023-05-08T06:47:36;99862.75;;;18.31;49.80
7376;BME280;3728;42.266;24.944;2023-05-08T06:50:05;99859.81;;;18.49;49.12
7376;BME280;3728;42.266;24.944;2023-05-08T06:52:34;99857.50;;;18.82;47.79
7376;BME280;3728;42.266;24.944;2023-05-08T06:55:03;99849.88;;;19.15;47.27
7376;BME280;3728;42.266;24.944;2023-05-08T06:57:31;99848.09;;;19.57;46.51
7376;BME280;3728;42.266;24.944;2023-05-08T07:00:00;99847.94;;;19.69;46.21
7376;BME280;3728;42.266;24.944;2023-05-08T07:02:28;99856.16;;;19.61;45.75
7376;BME280;3728;42.266;24.944;2023-05-08T07:04:56;99848.31;;;19.68;45.28
7376;BME280;3728;42.266;24.944;2023-05-08T07:07:24;99840.06;;;19.73;45.65
7376;BME280;3728;42.266;24.944;2023-05-08T07:09:52;99851.75;;;19.68;46.83
7376;BME280;3728;42.266;24.944;2023-05-08T07:12:20;99836.25;;;19.74;45.57
7376;BME280;3728;42.266;24.944;2023-05-08T07:14:49;99839.19;;;19.69;45.91
7376;BME280;3728;42.266;24.944;2023-05-08T07:17:17;99847.50;;;19.87;45.65
7376;BME280;3728;42.266;24.944;2023-05-08T07:19:49;99847.84;;;20.27;44.29
7376;BME280;3728;42.266;24.944;2023-05-08T07:22:17;99824.53;;;20.43;43.51
7376;BME280;3728;42.266;24.944;2023-05-08T07:24:45;99830.00;;;20.80;41.98
7376;BME280;3728;42.266;24.944;2023-05-08T07:27:13;99824.84;;;20.64;44.00
7376;BME280;3728;42.266;24.944;2023-05-08T07:29:40;99821.06;;;20.65;43.90
7376;BME280;3728;42.266;24.944;2023-05-08T07:32:09;99828.59;;;20.89;43.12
7376;BME280;3728;42.266;24.944;2023-05-08T07:34:37;99825.50;;;20.58;43.71
7376;BME280;3728;42.266;24.944;2023-05-08T07:37:04;99834.56;;;20.79;43.57
7376;BME280;3728;42.266;24.944;2023-05-08T07:39:32;99836.16;;;20.84;43.82
7376;BME280;3728;42.266;24.944;2023-05-08T07:42:00;99834.19;;;20.81;44.00
7376;BME280;3728;42.266;24.944;2023-05-08T07:44:30;99835.84;;;20.89;43.76
7376;BME280;3728;42.266;24.944;2023-05-08T07:47:12;99828.31;;;21.57;41.33
7376;BME280;3728;42.266;24.944;2023-05-08T07:49:40;99824.34;;;21.41;42.39
7376;BME280;3728;42.266;24.944;2023-05-08T07:52:09;99830.47;;;21.48;42.52
7376;BME280;3728;42.266;24.944;2023-05-08T07:54:36;99832.31;;;21.41;42.10
7376;BME280;3728;42.266;24.944;2023-05-08T07:57:04;99825.28;;;21.59;42.41
7376;BME280;3728;42.266;24.944;2023-05-08T07:59:32;99827.09;;;21.88;41.21
7376;BME280;3728;42.266;24.944;2023-05-08T08:01:59;99824.81;;;21.87;41.99
7376;BME280;3728;42.266;24.944;2023-05-08T08:04:27;99820.97;;;21.84;42.41
7376;BME280;3728;42.266;24.944;2023-05-08T08:06:55;99812.56;;;21.82;43.27
7376;BME280;3728;42.266;24.944;2023-05-08T08:09:26;99806.31;;;22.04;42.13
7376;BME280;3728;42.266;24.944;2023-05-08T08:11:54;99812.88;;;22.17;42.67
7376;BME280;3728;42.266;24.944;2023-05-08T08:14:21;99813.91;;;22.57;40.06
7376;BME280;3728;42.266;24.944;2023-05-08T08:16:49;99810.47;;;22.53;41.05
7376;BME280;3728;42.266;24.944;2023-05-08T08:19:17;99809.84;;;22.70;41.82
7376;BME280;3728;42.266;24.944;2023-05-08T08:21:45;99808.75;;;22.81;42.30
7376;BME280;3728;42.266;24.944;2023-05-08T08:24:12;99799.69;;;23.00;40.99
7376;BME280;3728;42.266;24.944;2023-05-08T08:26:40;99806.63;;;23.15;40.68
7376;BME280;3728;42.266;24.944;2023-05-08T08:29:08;99808.19;;;23.30;41.59
7376;BME280;3728;42.266;24.944;2023-05-08T08:31:35;99794.13;;;23.40;40.20
7376;BME280;3728;42.266;24.944;2023-05-08T08:34:03;99797.19;;;23.49;39.64
7376;BME280;3728;42.266;24.944;2023-05-08T08:36:31;99788.41;;;23.45;39.95
7376;BME280;3728;42.266;24.944;2023-05-08T08:39:02;99782.94;;;23.17;41.66
7376;BME280;3728;42.266;24.944;2023-05-08T08:41:30;99781.53;;;23.48;39.33
7376;BME280;3728;42.266;24.944;2023-05-08T08:43:58;99786.13;;;23.61;38.92
7376;BME280;3728;42.266;24.944;2023-05-08T08:46:26;99776.97;;;23.69;40.34
7376;BME280;3728;42.266;24.944;2023-05-08T08:48:56;99774.69;;;24.00;39.46
7376;BME280;3728;42.266;24.944;2023-05-08T08:51:44;99778.91;;;24.18;39.25
7376;BME280;3728;42.266;24.944;2023-05-08T08:54:20;99770.88;;;24.32;37.90
7376;BME280;3728;42.266;24.944;2023-05-08T08:56:50;99776.22;;;24.22;39.98
7376;BME280;3728;42.266;24.944;2023-05-08T08:59:18;99775.09;;;24.23;39.20
7376;BME280;3728;42.266;24.944;2023-05-08T09:01:49;99767.72;;;24.76;38.49
7376;BME280;3728;42.266;24.944;2023-05-08T09:04:21;99763.44;;;24.96;36.69
7376;BME280;3728;42.266;24.944;2023-05-08T09:06:52;99760.03;;;24.71;37.94
7376;BME280;3728;42.266;24.944;2023-05-08T09:09:20;99761.19;;;24.84;36.89
7376;BME280;3728;42.266;24.944;2023-05-08T09:11:50;99766.59;;;24.56;39.46
7376;BME280;3728;42.266;24.944;2023-05-08T09:14:20;99765.84;;;24.56;39.28
7376;BME280;3728;42.266;24.944;2023-05-08T09:16:47;99761.28;;;24.49;39.87
7376;BME280;3728;42.266;24.944;2023-05-08T09:19:15;99749.03;;;24.41;38.67
7376;BME280;3728;42.266;24.944;2023-05-08T09:21:44;99751.69;;;24.48;40.21
7376;BME280;3728;42.266;24.944;2023-05-08T09:24:11;99740.88;;;24.83;38.34
7376;BME280;3728;42.266;24.944;2023-05-08T09:26:59;99737.03;;;24.88;38.83
7376;BME280;3728;42.266;24.944;2023-05-08T09:29:27;99732.09;;;24.86;38.03
7376;BME280;3728;42.266;24.944;2023-05-08T09:31:55;99721.06;;;24.63;39.51
7376;BME280;3728;42.266;24.944;2023-05-08T09:34:26;99717.19;;;24.82;37.47
7376;BME280;3728;42.266;24.944;2023-05-08T09:39:38;99713.28;;;24.93;40.37
7376;BME280;3728;42.266;24.944;2023-05-08T09:42:07;99706.66;;;25.12;39.83
7376;BME280;3728;42.266;24.944;2023-05-08T09:44:50;99710.22;;;25.57;38.79
7376;BME280;3728;42.266;24.944;2023-05-08T09:47:20;99704.19;;;25.90;38.56
7376;BME280;3728;42.266;24.944;2023-05-08T09:50:00;99702.56;;;26.00;37.51
7376;BME280;3728;42.266;24.944;2023-05-08T09:52:29;99693.03;;;25.95;36.78
7376;BME280;3728;42.266;24.944;2023-05-08T09:55:08;99684.13;;;26.02;37.43
7376;BME280;3728;42.266;24.944;2023-05-08T09:57:38;99687.75;;;26.25;37.24
7376;BME280;3728;42.266;24.944;2023-05-08T10:00:19;99682.03;;;26.23;38.00
7376;BME280;3728;42.266;24.944;2023-05-08T10:03:01;99677.44;;;26.20;39.19
7376;BME280;3728;42.266;24.944;2023-05-08T10:05:31;99675.66;;;26.40;37.45
7376;BME280;3728;42.266;24.944;2023-05-08T10:08:20;99679.09;;;27.05;35.67
7376;BME280;3728;42.266;24.944;2023-05-08T10:10:49;99669.84;;;26.79;36.91
7376;BME280;3728;42.266;24.944;2023-05-08T10:13:17;99666.44;;;26.75;36.31
7376;BME280;3728;42.266;24.944;2023-05-08T10:15:51;99663.72;;;26.45;38.03
7376;BME280;3728;42.266;24.944;2023-05-08T10:18:21;99669.31;;;26.58;37.85
7376;BME280;3728;42.266;24.944;2023-05-08T10:20:54;99672.94;;;26.74;37.39
7376;BME280;3728;42.266;24.944;2023-05-08T10:23:24;99676.28;;;26.85;35.98
7376;BME280;3728;42.266;24.944;2023-05-08T10:25:55;99671.97;;;26.61;36.29
7376;BME280;3728;42.266;24.944;2023-05-08T10:28:52;99654.50;;;26.46;36.70
7376;BME280;3728;42.266;24.944;2023-05-08T10:31:27;99657.47;;;26.55;36.97
7376;BME280;3728;42.266;24.944;2023-05-08T10:34:01;99653.78;;;26.12;37.96
7376;BME280;3728;42.266;24.944;2023-05-08T10:36:30;99653.34;;;26.13;37.59
7376;BME280;3728;42.266;24.944;2023-05-08T10:38:58;99645.06;;;26.34;37.46
7376;BME280;3728;42.266;24.944;2023-05-08T10:41:29;99644.09;;;26.82;37.69
7376;BME280;3728;42.266;24.944;2023-05-08T10:43:58;99646.91;;;27.25;35.59
7376;BME280;3728;42.266;24.944;2023-05-08T10:46:53;99637.88;;;27.35;36.00
7376;BME280;3728;42.266;24.944;2023-05-08T10:49:54;99638.53;;;27.46;35.24
7376;BME280;3728;42.266;24.944;2023-05-08T10:52:38;99630.81;;;27.21;36.07
7376;BME280;3728;42.266;24.944;2023-05-08T10:55:31;99641.81;;;27.30;35.09
7376;BME280;3728;42.266;24.944;2023-05-08T11:03:26;99628.53;;;27.20;34.88
7376;BME280;3728;42.266;24.944;2023-05-08T11:05:59;99621.00;;;27.34;35.35
7376;BME280;3728;42.266;24.944;2023-05-08T11:08:29;99621.41;;;26.83;36.42
7376;BME280;3728;42.266;24.944;2023-05-08T11:13:34;99622.84;;;26.91;36.46
7376;BME280;3728;42.266;24.944;2023-05-08T11:19:20;99627.66;;;27.72;37.60
7376;BME280;3728;42.266;24.944;2023-05-08T11:24:56;99627.97;;;28.37;34.78
7376;BME280;3728;42.266;24.944;2023-05-08T11:27:35;99615.28;;;28.37;34.89
7376;BME280;3728;42.266;24.944;2023-05-08T11:38:32;99608.72;;;28.90;33.64
7376;BME280;3728;42.266;24.944;2023-05-08T11:41:10;99597.41;;;28.63;34.17
7376;BME280;3728;42.266;24.944;2023-05-08T11:46:53;99587.94;;;28.55;34.01
7376;BME280;3728;42.266;24.944;2023-05-08T11:49:24;99589.47;;;28.56;33.45
7376;BME280;3728;42.266;24.944;2023-05-08T11:51:57;99584.53;;;28.71;33.14
7376;BME280;3728;42.266;24.944;2023-05-08T11:54:28;99583.28;;;28.59;34.58
7376;BME280;3728;42.266;24.944;2023-05-08T11:56:57;99582.34;;;28.98;32.81
7376;BME280;3728;42.266;24.944;2023-05-08T11:59:25;99585.28;;;28.71;34.35
7376;BME280;3728;42.266;24.944;2023-05-08T12:01:53;99588.06;;;29.16;32.51
7376;BME280;3728;42.266;24.944;2023-05-08T12:04:23;99575.47;;;28.45;34.39
7376;BME280;3728;42.266;24.944;2023-05-08T12:06:56;99572.53;;;28.56;33.27
7376;BME280;3728;42.266;24.944;2023-05-08T12:09:24;99560.28;;;28.71;34.01
7376;BME280;3728;42.266;24.944;2023-05-08T12:11:56;99568.59;;;28.92;34.21
7376;BME280;3728;42.266;24.944;2023-05-08T12:14:25;99560.66;;;28.53;34.14
7376;BME280;3728;42.266;24.944;2023-05-08T12:16:55;99552.78;;;28.94;33.87
7376;BME280;3728;42.266;24.944;2023-05-08T12:19:23;99549.97;;;29.14;34.41
7376;BME280;3728;42.266;24.944;2023-05-08T12:21:51;99546.28;;;29.08;34.59
7376;BME280;3728;42.266;24.944;2023-05-08T12:24:19;99540.47;;;29.09;33.79
7376;BME280;3728;42.266;24.944;2023-05-08T12:26:54;99538.78;;;29.16;33.39
7376;BME280;3728;42.266;24.944;2023-05-08T12:29:22;99536.41;;;29.18;33.68
7376;BME280;3728;42.266;24.944;2023-05-08T12:31:58;99540.38;;;29.13;34.06
7376;BME280;3728;42.266;24.944;2023-05-08T12:34:29;99539.03;;;29.21;35.18
7376;BME280;3728;42.266;24.944;2023-05-08T12:37:04;99535.06;;;29.09;33.71
7376;BME280;3728;42.266;24.944;2023-05-08T12:39:52;99530.03;;;28.95;33.74
7376;BME280;3728;42.266;24.944;2023-05-08T12:42:20;99521.22;;;28.43;35.23
7376;BME280;3728;42.266;24.944;2023-05-08T12:44:51;99527.97;;;28.35;34.64
7376;BME280;3728;42.266;24.944;2023-05-08T12:47:19;99527.97;;;28.35;35.21
7376;BME280;3728;42.266;24.944;2023-05-08T12:49:47;99523.34;;;28.52;35.31
7376;BME280;3728;42.266;24.944;2023-05-08T12:52:16;99519.56;;;28.13;34.77
7376;BME280;3728;42.266;24.944;2023-05-08T12:54:46;99524.75;;;28.24;34.79
7376;BME280;3728;42.266;24.944;2023-05-08T12:57:16;99521.22;;;28.43;35.26
7376;BME280;3728;42.266;24.944;2023-05-08T12:59:45;99519.69;;;28.78;34.76
7376;BME280;3728;42.266;24.944;2023-05-08T13:02:18;99516.34;;;29.35;35.61
7376;BME280;3728;42.266;24.944;2023-05-08T13:04:53;99522.13;;;29.91;34.03
7376;BME280;3728;42.266;24.944;2023-05-08T13:07:30;99520.31;;;30.00;33.21
7376;BME280;3728;42.266;24.944;2023-05-08T13:10:00;99518.22;;;29.92;32.45
7376;BME280;3728;42.266;24.944;2023-05-08T13:12:31;99523.03;;;30.25;33.37
7376;BME280;3728;42.266;24.944;2023-05-08T13:14:58;99538.91;;;29.98;34.86
7376;BME280;3728;42.266;24.944;2023-05-08T13:17:26;99520.91;;;30.33;36.40
7376;BME280;3728;42.266;24.944;2023-05-08T13:19:54;99529.75;;;30.46;35.59
7376;BME280;3728;42.266;24.944;2023-05-08T13:22:22;99528.81;;;29.86;34.59
7376;BME280;3728;42.266;24.944;2023-05-08T13:24:52;99520.78;;;29.41;37.11
7376;BME280;3728;42.266;24.944;2023-05-08T13:27:20;99524.22;;;29.70;35.88
7376;BME280;3728;42.266;24.944;2023-05-08T13:29:47;99516.69;;;30.57;34.67
7376;BME280;3728;42.266;24.944;2023-05-08T13:32:15;99506.44;;;30.86;34.52
7376;BME280;3728;42.266;24.944;2023-05-08T13:34:43;99502.81;;;31.15;33.23
7376;BME280;3728;42.266;24.944;2023-05-08T13:37:17;99499.75;;;31.25;32.68
7376;BME280;3728;42.266;24.944;2023-05-08T13:39:47;99496.53;;;31.18;32.54
7376;BME280;3728;42.266;24.944;2023-05-08T13:42:14;99497.41;;;31.49;32.98
7376;BME280;3728;42.266;24.944;2023-05-08T13:44:42;99493.47;;;31.50;32.92
7376;BME280;3728;42.266;24.944;2023-05-08T13:47:12;99496.28;;;31.68;31.10
7376;BME280;3728;42.266;24.944;2023-05-08T13:49:39;99489.31;;;31.58;32.75
7376;BME280;3728;42.266;24.944;2023-05-08T13:52:07;99493.63;;;31.34;32.10
7376;BME280;3728;42.266;24.944;2023-05-08T13:54:35;99502.25;;;30.73;33.32
7376;BME280;3728;42.266;24.944;2023-05-08T13:57:04;99489.63;;;30.32;34.44
7376;BME280;3728;42.266;24.944;2023-05-08T13:59:32;99485.09;;;30.41;33.68
7376;BME280;3728;42.266;24.944;2023-05-08T14:02:00;99485.50;;;30.65;32.97
7376;BME280;3728;42.266;24.944;2023-05-08T14:04:28;99484.94;;;31.17;32.80
7376;BME280;3728;42.266;24.944;2023-05-08T14:06:56;99474.97;;;31.14;32.36
7376;BME280;3728;42.266;24.944;2023-05-08T14:09:23;99478.66;;;31.42;31.64
7376;BME280;3728;42.266;24.944;2023-05-08T14:11:51;99478.81;;;31.60;32.85
7376;BME280;3728;42.266;24.944;2023-05-08T14:14:19;99481.19;;;31.58;33.14
7376;BME280;3728;42.266;24.944;2023-05-08T14:16:47;99475.88;;;31.11;33.40
7376;BME280;3728;42.266;24.944;2023-05-08T14:19:16;99468.66;;;30.61;33.54